createdAt,value
2022-10-16T02:12:40.520Z,8.70
2022-10-16T02:15:28.375Z,7.65
2022-10-16T02:18:17.720Z,8.98
2022-10-16T02:21:15.763Z,7.63
2022-10-16T02:24:10.464Z,9.55
2022-10-16T02:27:05.777Z,7.40
2022-10-16T02:30:00.744Z,8.70
2022-10-16T02:32:51.010Z,7.47
2022-10-16T02:35:40.827Z,7.63
2022-10-16T02:38:29.774Z,7.15
2022-10-16T02:41:17.758Z,8.30
2022-10-16T02:44:05.927Z,7.13
2022-10-16T02:46:53.843Z,8.57
2022-10-16T02:49:41.758Z,8.80
2022-10-16T02:52:30.656Z,8.55
2022-10-16T02:55:18.581Z,9.63
2022-10-16T02:58:06.247Z,11.70
2022-10-16T03:00:54.314Z,11.85
2022-10-16T03:03:41.987Z,9.35
2022-10-16T03:06:29.945Z,10.98
2022-10-16T03:09:19.440Z,9.73
2022-10-16T03:12:07.756Z,10.07
2022-10-16T03:14:55.366Z,10.45
2022-10-16T03:17:43.218Z,9.77
2022-10-16T03:20:31.710Z,9.60
2022-10-16T03:23:19.642Z,9.98
2022-10-16T03:26:08.698Z,9.55
2022-10-16T03:28:56.673Z,10.50
2022-10-16T03:31:44.512Z,9.68
2022-10-16T03:34:33.032Z,9.82
2022-10-16T03:37:20.967Z,9.82
2022-10-16T03:40:09.598Z,10.52
2022-10-16T03:42:58.739Z,10.07
2022-10-16T03:45:46.638Z,9.32
2022-10-16T03:48:34.395Z,10.18
2022-10-16T03:51:21.888Z,10.25
2022-10-16T03:54:09.554Z,9.68
2022-10-16T03:56:57.091Z,9.00
2022-10-16T03:59:46.056Z,9.88
2022-10-16T04:02:33.970Z,9.73
2022-10-16T04:05:21.873Z,10.30
2022-10-16T04:08:09.848Z,9.23
2022-10-16T04:10:57.497Z,8.73
2022-10-16T04:13:45.219Z,8.20
2022-10-16T04:16:34.520Z,8.68
2022-10-16T04:19:22.233Z,8.85
2022-10-16T04:22:10.037Z,8.50
2022-10-16T04:25:00.659Z,9.13
2022-10-16T04:27:48.644Z,7.87
2022-10-16T04:36:13.596Z,8.60
2022-10-16T04:39:01.594Z,8.90
2022-10-16T04:41:49.469Z,9.65
2022-10-16T04:44:37.477Z,8.75
2022-10-16T04:47:25.717Z,8.95
2022-10-16T04:50:15.173Z,9.30
2022-10-16T04:53:21.324Z,15.55
2022-10-16T04:56:08.912Z,9.02
2022-10-16T04:58:56.524Z,9.63
2022-10-16T05:01:44.577Z,10.90
2022-10-16T05:04:32.116Z,9.50
2022-10-16T05:07:21.209Z,10.77
2022-10-16T05:10:09.682Z,10.25
2022-10-16T05:12:57.435Z,10.45
2022-10-16T05:15:50.190Z,10.20
2022-10-16T05:18:37.848Z,9.85
2022-10-16T05:21:25.655Z,9.35
2022-10-16T05:24:15.217Z,9.45
2022-10-16T05:27:02.885Z,8.48
2022-10-16T05:29:51.218Z,8.45
2022-10-16T05:32:38.927Z,9.95
2022-10-16T05:35:26.946Z,9.35
2022-10-16T05:38:14.718Z,8.90
2022-10-16T05:41:04.135Z,11.00
2022-10-16T05:43:51.701Z,11.20
2022-10-16T05:46:39.197Z,10.13
2022-10-16T05:49:27.114Z,10.52
2022-10-16T05:52:14.691Z,10.25
2022-10-16T05:55:02.584Z,11.50
2022-10-16T05:57:52.405Z,10.45
2022-10-16T06:31:30.198Z,17.50
2022-10-16T06:37:05.730Z,13.60
2022-10-16T06:39:54.397Z,15.02
2022-10-16T06:42:42.566Z,13.07
2022-10-16T06:45:30.394Z,13.27
2022-10-16T06:48:19.745Z,11.82
2022-10-16T06:56:55.611Z,12.25
2022-10-16T06:59:46.844Z,12.30
2022-10-16T07:02:34.883Z,12.55
2022-10-16T07:05:24.155Z,12.30
2022-10-16T07:08:12.437Z,11.88
2022-10-16T07:11:03.783Z,12.30
2022-10-16T07:13:56.063Z,11.57
2022-10-16T07:16:44.135Z,12.30
2022-10-16T07:19:34.286Z,11.90
2022-10-16T07:22:24.206Z,12.07
2022-10-16T07:25:12.611Z,12.15
2022-10-16T07:28:00.419Z,11.95
2022-10-16T07:30:48.019Z,12.25
2022-10-16T09:04:22.171Z,4.70
2022-10-16T09:15:53.148Z,4.07
2022-10-16T10:15:20.927Z,4.15
2022-10-16T10:18:20.591Z,3.80
2022-10-16T10:21:15.494Z,4.07
2022-10-16T15:47:46.616Z,13.07
2022-10-16T15:50:35.194Z,6.55
2022-10-16T15:53:23.049Z,6.57
2022-10-16T15:56:13.166Z,7.13
2022-10-16T15:59:01.312Z,6.45
2022-10-16T16:01:49.328Z,9.10
2022-10-16T16:04:44.907Z,12.23
2022-10-16T16:07:35.125Z,8.45
2022-10-16T16:10:23.178Z,9.32
2022-10-16T16:13:12.502Z,7.15
2022-10-16T16:16:00.139Z,7.25
2022-10-16T16:21:37.759Z,10.25
2022-10-16T16:24:25.681Z,7.82
2022-10-16T16:27:14.602Z,10.60
2022-10-16T16:30:05.549Z,11.27
2022-10-16T16:32:53.477Z,15.35
2022-10-16T16:35:41.700Z,14.10
2022-10-16T16:38:30.337Z,13.02
2022-10-16T16:41:20.223Z,13.35
2022-10-16T16:44:11.057Z,13.85
2022-10-16T16:47:00.243Z,13.13
2022-10-16T16:49:48.404Z,14.60
2022-10-16T16:52:36.380Z,14.70
2022-10-16T16:55:24.158Z,15.63
2022-10-16T16:58:11.904Z,16.60
2022-10-16T17:01:18.983Z,16.48
2022-10-16T17:04:09.845Z,23.05
2022-10-16T17:06:58.129Z,21.98
2022-10-16T17:09:45.975Z,20.83
2022-10-16T17:12:34.203Z,16.92
2022-10-16T17:15:21.961Z,20.73
2022-10-16T17:18:09.614Z,19.00
2022-10-16T17:21:01.807Z,16.85
2022-10-16T17:23:52.712Z,21.25
2022-10-16T17:26:43.536Z,16.05
2022-10-16T17:29:31.142Z,19.00
2022-10-16T17:32:20.753Z,16.02
2022-10-16T17:35:10.045Z,15.68
2022-10-16T17:37:59.403Z,16.23
2022-10-16T17:40:47.155Z,16.08
2022-10-16T17:43:35.049Z,16.30
2022-10-16T17:46:24.721Z,17.52
2022-10-16T17:49:14.835Z,17.60
2022-10-16T17:52:03.168Z,22.27
2022-10-16T17:54:53.350Z,19.17
2022-10-16T17:57:41.304Z,17.88
2022-10-16T18:00:30.189Z,23.13
2022-10-16T18:03:17.993Z,19.48
2022-10-16T18:09:01.634Z,21.10
2022-10-16T18:11:55.585Z,24.83
2022-10-16T18:14:43.260Z,19.75
2022-10-16T18:51:12.205Z,23.27
2022-10-16T18:54:01.503Z,20.83
2022-10-16T18:56:49.125Z,21.23
2022-10-16T18:59:38.698Z,20.80
2022-10-16T19:13:39.346Z,18.10
2022-10-16T19:16:29.859Z,18.95
2022-10-16T19:19:20.008Z,18.17
2022-10-16T19:22:28.055Z,18.08
2022-10-16T19:25:16.181Z,21.05
2022-10-16T19:28:07.534Z,17.42
2022-10-16T19:30:55.374Z,18.58
2022-10-16T19:33:43.407Z,32.50
2022-10-16T19:36:33.559Z,20.92
2022-10-16T19:39:21.592Z,19.77
2022-10-16T19:42:09.503Z,20.25
2022-10-16T19:44:57.191Z,20.13
2022-10-16T20:24:20.848Z,19.70
2022-10-16T20:27:08.646Z,28.52
2022-10-16T20:29:57.870Z,23.50
2022-10-16T20:32:46.309Z,25.75
2022-10-16T20:35:37.695Z,18.00
2022-10-16T20:41:15.402Z,17.75
2022-10-16T20:44:04.446Z,18.85
2022-10-16T20:46:56.270Z,19.20
2022-10-16T20:49:44.104Z,18.88
2022-10-16T20:52:34.356Z,19.17
2022-10-16T20:55:22.080Z,18.58
2022-10-16T20:58:10.050Z,18.27
2022-10-16T21:32:08.107Z,17.85
2022-10-16T21:34:56.194Z,20.27
2022-10-16T21:37:49.841Z,17.48
2022-10-16T21:40:37.705Z,18.70
2022-10-16T21:43:25.576Z,18.35
2022-10-16T21:46:13.854Z,17.80
2022-10-16T21:49:05.038Z,18.70
2022-10-16T21:51:52.839Z,17.52
2022-10-16T21:54:42.395Z,18.70
2022-10-16T21:57:30.478Z,18.70
2022-10-16T22:00:18.480Z,18.08
2022-10-16T22:03:05.864Z,18.00
2022-10-16T22:05:53.709Z,17.58
2022-10-16T22:08:41.732Z,14.60
2022-10-16T22:11:36.691Z,19.45
2022-10-16T22:14:27.193Z,18.40
2022-10-16T22:17:15.266Z,14.82
2022-10-16T22:20:02.808Z,13.95
2022-10-16T22:22:50.679Z,18.35
2022-10-16T22:25:38.969Z,16.10
2022-10-16T22:28:27.994Z,14.77
2022-10-16T22:31:16.338Z,15.40
2022-10-16T22:34:05.441Z,15.48
2022-10-16T22:36:53.311Z,19.08
2022-10-16T22:39:41.240Z,16.15
2022-10-16T22:42:29.707Z,15.20
2022-10-16T22:45:18.765Z,15.88
2022-10-16T22:48:07.258Z,14.75
2022-10-16T22:50:55.040Z,15.63
2022-10-16T22:53:43.389Z,14.05
2022-10-16T22:56:30.925Z,14.90
2022-10-16T22:59:18.666Z,13.55
2022-10-16T23:02:08.069Z,13.70
2022-10-16T23:04:55.883Z,21.00
2022-10-16T23:07:44.774Z,20.52
2022-10-16T23:10:32.367Z,21.75
2022-10-16T23:13:20.177Z,16.33
2022-10-16T23:16:08.737Z,17.70
2022-10-16T23:18:57.583Z,17.08
2022-10-16T23:21:46.075Z,18.15
2022-10-16T23:24:34.215Z,18.63
2022-10-16T23:27:22.092Z,21.65
2022-10-16T23:30:13.135Z,25.23
2022-10-16T23:33:00.676Z,38.80
2022-10-16T23:35:49.958Z,38.83
2022-10-16T23:38:38.332Z,34.35
2022-10-16T23:41:26.028Z,32.50
2022-10-16T23:44:13.623Z,25.45
2022-10-16T23:47:01.789Z,24.35
2022-10-16T23:49:49.718Z,18.35
2022-10-16T23:52:39.115Z,21.35
2022-10-16T23:55:26.754Z,20.08
2022-10-16T23:58:14.480Z,18.00
